Coarsegold, California
Current Conditions -  °F | °C
As of 1:16 PM on Sunday 23 Nov 2014 (Local Time) from KMAE Reporting Station
Broken Clouds Broken Clouds  
Wind Chill: 58°   Ceiling: 2200
Heat Index: 58°   Visibility: 10mi
Dew Point: 45°   Wind: 6mph
Humidity: 62%   Direction: 160°SSE
Pressure: 30.3"   Gusts: NA
Location:  37.26°N, 119.7°W
Report Text: KMAE 232116Z AUTO 16005KT 10SM BKN022 14/07 A3030 RMK AO2 T01440072 $
Loading
Personal Weather Stations






























Interactive Weather Map New forecast layout! Learn more

10-Day Weather Forecast

Advertisements
Track Severe Weather on mobile